createdAt,value
2018-02-22T00:01:15.483Z,76.19
2018-02-22T00:03:43.799Z,76.16
2018-02-22T00:06:12.068Z,76.06
2018-02-22T00:08:40.361Z,76.13
2018-02-22T00:11:09.257Z,76.27
2018-02-22T00:13:37.524Z,76.00
2018-02-22T00:16:06.575Z,76.29
2018-02-22T00:18:34.864Z,76.27
2018-02-22T00:21:03.155Z,76.48
2018-02-22T00:23:31.424Z,76.62
2018-02-22T00:25:59.707Z,75.97
2018-02-22T00:28:28.042Z,76.40
2018-02-22T00:30:56.332Z,76.26
2018-02-22T00:33:24.675Z,76.35
2018-02-22T00:35:53.119Z,76.28
2018-02-22T00:38:21.421Z,76.54
2018-02-22T00:40:49.733Z,76.20
2018-02-22T00:43:18.803Z,76.81
2018-02-22T00:45:47.084Z,77.41
2018-02-22T00:48:15.343Z,77.04
2018-02-22T00:50:43.828Z,76.89
2018-02-22T00:53:12.104Z,76.81
2018-02-22T00:55:41.148Z,76.75
2018-02-22T00:58:09.396Z,76.85
2018-02-22T01:00:38.431Z,76.97
2018-02-22T01:03:06.705Z,77.12
2018-02-22T01:05:35.010Z,77.02
2018-02-22T01:08:03.271Z,76.79
2018-02-22T01:10:32.312Z,77.07
2018-02-22T01:13:00.570Z,77.08
2018-02-22T01:15:29.615Z,77.36
2018-02-22T01:17:57.919Z,77.43
2018-02-22T01:20:26.264Z,77.89
2018-02-22T01:22:54.662Z,77.79
2018-02-22T01:25:23.017Z,77.75
2018-02-22T01:27:51.293Z,77.74
2018-02-22T01:30:19.623Z,78.02
2018-02-22T01:32:49.020Z,77.79
2018-02-22T01:35:17.293Z,77.77
2018-02-22T01:37:45.557Z,78.03
2018-02-22T01:40:13.837Z,77.71
2018-02-22T01:42:42.119Z,77.84
2018-02-22T01:45:10.401Z,77.95
2018-02-22T01:47:38.654Z,78.26
2018-02-22T01:50:07.713Z,78.25
2018-02-22T01:52:35.966Z,77.74
2018-02-22T01:55:05.011Z,77.86
2018-02-22T01:57:33.273Z,77.96
2018-02-22T02:00:01.580Z,77.84
2018-02-22T02:02:29.861Z,77.77
2018-02-22T02:04:58.170Z,77.93
2018-02-22T02:07:26.506Z,77.95
2018-02-22T02:09:54.884Z,77.58
2018-02-22T02:12:24.025Z,77.23
2018-02-22T02:14:52.300Z,77.22
2018-02-22T02:17:20.570Z,77.12
2018-02-22T02:19:48.856Z,77.61
2018-02-22T02:22:17.129Z,77.98
2018-02-22T02:24:46.428Z,77.97
2018-02-22T02:27:14.723Z,77.82
2018-02-22T02:29:43.018Z,77.43
2018-02-22T02:32:11.300Z,77.69
2018-02-22T02:34:39.573Z,77.47
2018-02-22T02:37:07.870Z,77.83
2018-02-22T02:39:36.145Z,77.55
2018-02-22T02:42:04.420Z,77.86
2018-02-22T02:44:32.690Z,77.90
2018-02-22T02:47:00.986Z,78.01
2018-02-22T02:49:30.020Z,78.45
2018-02-22T02:51:58.296Z,78.12
2018-02-22T02:54:26.569Z,78.66
2018-02-22T02:56:55.608Z,78.47
2018-02-22T02:59:23.876Z,78.58
2018-02-22T03:01:52.909Z,78.61
2018-02-22T03:04:21.182Z,78.83
2018-02-22T03:06:49.456Z,78.96
2018-02-22T03:09:18.481Z,79.10
2018-02-22T03:11:46.756Z,78.75
2018-02-22T03:14:15.788Z,78.64
2018-02-22T03:16:44.071Z,78.45
2018-02-22T03:19:12.353Z,78.15
2018-02-22T03:21:40.638Z,78.38
2018-02-22T03:24:08.911Z,78.04
2018-02-22T03:26:37.964Z,78.45
2018-02-22T03:29:06.228Z,78.19
2018-02-22T03:31:34.512Z,77.74
2018-02-22T03:34:03.544Z,77.29
2018-02-22T03:36:31.838Z,77.68
2018-02-22T03:39:00.125Z,77.92
2018-02-22T03:41:28.401Z,77.46
2018-02-22T03:43:56.656Z,77.02
2018-02-22T03:46:25.708Z,77.07
2018-02-22T03:48:53.966Z,76.94
2018-02-22T03:51:23.020Z,76.98
2018-02-22T03:53:51.277Z,76.95
2018-02-22T03:56:19.592Z,76.64
2018-02-22T03:58:48.063Z,76.77
2018-02-22T04:01:16.355Z,77.06
2018-02-22T04:03:44.661Z,76.81
2018-02-22T04:06:13.047Z,77.03
2018-02-22T04:08:41.340Z,76.92
2018-02-22T04:11:09.632Z,76.67
2018-02-22T04:13:37.894Z,76.94
2018-02-22T04:16:07.111Z,77.09
2018-02-22T04:18:35.381Z,77.31
2018-02-22T04:21:04.401Z,77.06
2018-02-22T04:23:32.681Z,77.40
2018-02-22T04:26:01.712Z,77.08
2018-02-22T04:28:29.996Z,76.66
2018-02-22T04:30:58.281Z,76.69
2018-02-22T04:33:26.566Z,76.47
2018-02-22T04:35:55.612Z,76.61
2018-02-22T04:38:23.905Z,76.92
2018-02-22T04:40:52.167Z,76.79
2018-02-22T04:43:20.451Z,76.90
2018-02-22T04:45:48.704Z,77.26
2018-02-22T04:48:16.991Z,77.38
2018-02-22T04:50:46.064Z,77.70
2018-02-22T04:53:14.364Z,77.04
2018-02-22T04:55:42.707Z,76.93
2018-02-22T04:58:11.794Z,77.00
2018-02-22T05:00:40.820Z,77.54
2018-02-22T05:03:09.093Z,77.65
2018-02-22T05:05:38.118Z,77.79
2018-02-22T05:08:06.395Z,77.58
2018-02-22T05:10:35.420Z,77.64
2018-02-22T05:13:03.699Z,78.16
2018-02-22T05:15:32.787Z,77.29
2018-02-22T05:18:01.072Z,77.42
2018-02-22T05:20:29.340Z,77.96
2018-02-22T05:22:57.608Z,77.23
2018-02-22T05:25:25.872Z,76.72
2018-02-22T05:27:54.161Z,77.82
2018-02-22T05:30:22.412Z,77.86
2018-02-22T05:32:50.696Z,77.51
2018-02-22T05:35:18.954Z,76.99
2018-02-22T05:37:47.236Z,77.49
2018-02-22T05:40:15.515Z,77.43
2018-02-22T05:42:43.839Z,77.21
2018-02-22T05:45:12.899Z,77.65
2018-02-22T05:47:41.199Z,78.05
2018-02-22T05:50:09.478Z,77.27
2018-02-22T05:52:37.951Z,76.61
2018-02-22T05:55:07.018Z,76.23
2018-02-22T05:57:35.460Z,77.44
2018-02-22T06:00:04.507Z,76.27
2018-02-22T06:02:32.966Z,76.99
2018-02-22T06:05:01.299Z,76.04
2018-02-22T06:07:29.676Z,75.98
2018-02-22T06:09:58.130Z,75.46
2018-02-22T06:12:27.182Z,74.88
2018-02-22T06:14:56.648Z,74.88
2018-02-22T06:17:24.992Z,75.00
2018-02-22T06:19:53.441Z,74.81
2018-02-22T06:22:22.539Z,76.83
2018-02-22T06:24:50.937Z,74.75
2018-02-22T06:27:19.240Z,75.00
2018-02-22T06:29:48.367Z,74.35
2018-02-22T06:32:16.912Z,74.51
2018-02-22T06:34:45.208Z,74.16
2018-02-22T06:37:13.871Z,74.54
2018-02-22T06:39:42.222Z,72.85
2018-02-22T06:42:11.363Z,73.59
2018-02-22T06:44:39.754Z,73.85
2018-02-22T06:47:08.133Z,73.62
2018-02-22T06:49:36.420Z,73.96
2018-02-22T06:52:06.313Z,74.00
2018-02-22T06:54:35.579Z,73.92
2018-02-22T06:57:03.934Z,73.64
2018-02-22T06:59:33.011Z,73.56
2018-02-22T07:02:01.282Z,73.20
2018-02-22T07:04:29.639Z,73.47
2018-02-22T07:06:57.904Z,73.72
2018-02-22T07:09:27.562Z,73.81
2018-02-22T07:11:55.854Z,74.05
2018-02-22T07:14:24.191Z,73.54
2018-02-22T07:16:52.491Z,72.90
2018-02-22T07:19:21.734Z,72.63
2018-02-22T07:21:50.057Z,74.99
2018-02-22T07:24:18.414Z,72.35
2018-02-22T07:26:46.711Z,71.85
2018-02-22T07:29:15.010Z,71.81
2018-02-22T07:31:43.368Z,71.97
2018-02-22T07:34:11.673Z,71.65
2018-02-22T07:36:39.940Z,71.00
2018-02-22T07:39:09.384Z,71.37
2018-02-22T07:41:37.768Z,69.61
2018-02-22T07:44:06.078Z,69.31
2018-02-22T07:46:34.493Z,69.84
2018-02-22T07:49:02.768Z,69.39
2018-02-22T07:51:31.172Z,69.72
2018-02-22T07:53:59.601Z,69.06
2018-02-22T07:56:28.755Z,68.40
2018-02-22T07:58:57.032Z,69.64
2018-02-22T08:01:25.367Z,69.61
2018-02-22T08:03:54.442Z,69.62
2018-02-22T08:06:23.209Z,68.48
2018-02-22T08:08:52.313Z,68.24
2018-02-22T08:11:21.403Z,70.27
2018-02-22T08:13:50.553Z,68.42
2018-02-22T08:16:18.836Z,69.46
2018-02-22T08:18:47.222Z,68.19
2018-02-22T08:21:15.619Z,67.38
2018-02-22T08:23:43.922Z,65.99
2018-02-22T08:26:12.218Z,66.26
2018-02-22T08:28:40.563Z,65.73
2018-02-22T08:31:09.722Z,66.41
2018-02-22T08:33:38.139Z,65.23
2018-02-22T08:36:06.385Z,65.11
2018-02-22T08:38:34.719Z,65.01
2018-02-22T08:41:04.057Z,64.08
2018-02-22T08:43:33.266Z,64.50
2018-02-22T08:46:02.735Z,65.62
2018-02-22T08:48:31.023Z,65.37
2018-02-22T08:50:59.743Z,65.89
2018-02-22T08:53:28.024Z,67.05
2018-02-22T08:55:56.367Z,65.67
2018-02-22T08:58:25.422Z,64.97
2018-02-22T09:00:54.562Z,65.05
2018-02-22T09:03:22.895Z,65.20
2018-02-22T09:05:51.415Z,64.93
2018-02-22T09:08:19.748Z,64.97
2018-02-22T09:10:48.823Z,64.93
2018-02-22T09:13:17.123Z,65.07
2018-02-22T09:15:45.589Z,65.20
2018-02-22T09:18:14.006Z,65.09
2018-02-22T09:20:43.095Z,64.93
2018-02-22T09:23:11.850Z,63.84
2018-02-22T09:25:40.191Z,64.18
2018-02-22T09:28:08.730Z,63.57
2018-02-22T09:30:38.335Z,63.82
2018-02-22T09:33:07.650Z,64.02
2018-02-22T09:35:36.866Z,63.24
2018-02-22T09:38:06.333Z,62.35
2018-02-22T09:40:34.699Z,61.82
2018-02-22T09:43:04.038Z,60.04
2018-02-22T09:45:32.622Z,60.37
2018-02-22T09:48:01.459Z,59.68
2018-02-22T09:50:30.062Z,60.01
2018-02-22T09:52:58.618Z,60.31
2018-02-22T09:55:27.213Z,58.58
2018-02-22T09:57:55.743Z,57.63
2018-02-22T10:00:24.519Z,57.92
2018-02-22T10:02:52.884Z,58.89
2018-02-22T10:05:21.390Z,58.35
2018-02-22T10:07:49.713Z,59.32
2018-02-22T10:10:18.135Z,58.06
2018-02-22T10:12:46.919Z,56.34
2018-02-22T10:15:15.172Z,56.96
2018-02-22T10:17:43.915Z,57.03
2018-02-22T10:20:12.233Z,55.98
2018-02-22T10:22:41.286Z,56.46
2018-02-22T10:25:09.957Z,55.38
2018-02-22T10:27:38.681Z,55.91
2018-02-22T10:30:06.971Z,55.46
2018-02-22T10:32:36.561Z,56.61
2018-02-22T10:35:05.093Z,55.67
2018-02-22T10:37:33.695Z,55.35
2018-02-22T10:40:02.247Z,55.36
2018-02-22T10:42:30.694Z,56.45
2018-02-22T10:44:59.006Z,55.30
2018-02-22T10:47:28.316Z,54.73
2018-02-22T10:49:57.753Z,56.75
2018-02-22T10:52:26.069Z,55.35
2018-02-22T10:54:54.447Z,53.89
2018-02-22T10:57:22.838Z,54.12
2018-02-22T10:59:51.225Z,53.75
2018-02-22T11:02:25.288Z,53.50
2018-02-22T11:04:53.562Z,54.61
2018-02-22T11:07:21.836Z,53.84
2018-02-22T11:09:50.096Z,54.55
2018-02-22T11:12:19.204Z,53.95
2018-02-22T11:14:48.988Z,54.68
2018-02-22T11:17:17.270Z,54.29
2018-02-22T11:19:45.603Z,54.77
2018-02-22T11:22:13.871Z,54.99
2018-02-22T11:24:42.200Z,55.10
2018-02-22T11:27:10.485Z,54.10
2018-02-22T11:29:38.984Z,54.73
2018-02-22T11:32:07.305Z,53.79
2018-02-22T11:34:36.468Z,53.74
2018-02-22T11:37:05.505Z,54.01
2018-02-22T11:39:33.770Z,53.29
2018-02-22T11:42:03.473Z,52.67
2018-02-22T11:44:31.741Z,52.20
2018-02-22T11:47:00.308Z,51.85
2018-02-22T11:49:28.656Z,51.81
2018-02-22T11:51:56.929Z,50.49
2018-02-22T11:54:25.191Z,49.63
2018-02-22T11:56:55.117Z,49.59
2018-02-22T11:59:24.154Z,49.46
2018-02-22T12:01:52.497Z,50.49
2018-02-22T12:04:20.919Z,49.54
2018-02-22T12:06:49.274Z,49.75
2018-02-22T12:09:17.581Z,50.04
2018-02-22T12:11:45.898Z,49.13
2018-02-22T12:14:14.180Z,48.20
2018-02-22T12:16:42.506Z,49.70
2018-02-22T12:19:10.775Z,48.95
2018-02-22T12:21:39.055Z,48.50
2018-02-22T12:24:07.491Z,50.22
2018-02-22T12:26:36.822Z,50.54
2018-02-22T12:29:05.170Z,50.45
2018-02-22T12:31:33.580Z,50.12
2018-02-22T12:34:02.644Z,49.84
2018-02-22T12:36:30.917Z,50.45
2018-02-22T12:38:59.405Z,50.61
2018-02-22T12:41:27.748Z,49.90
2018-02-22T12:43:56.829Z,49.33
2018-02-22T12:46:25.506Z,49.27
2018-02-22T12:48:53.788Z,49.94
2018-02-22T12:51:22.066Z,49.13
2018-02-22T12:53:50.332Z,48.79
2018-02-22T12:56:19.465Z,48.25
2018-02-22T12:58:47.790Z,48.59
2018-02-22T13:01:16.091Z,48.26
2018-02-22T13:03:44.425Z,48.78
2018-02-22T13:06:12.786Z,48.04
2018-02-22T13:08:41.158Z,48.45
2018-02-22T13:11:10.234Z,48.42
2018-02-22T13:13:38.580Z,48.89
2018-02-22T13:16:08.620Z,49.25
2018-02-22T13:18:37.730Z,48.62
2018-02-22T13:21:06.880Z,48.31
2018-02-22T13:23:35.212Z,48.96
2018-02-22T13:26:04.462Z,48.95
2018-02-22T13:28:32.773Z,48.38
2018-02-22T13:31:01.078Z,47.39
2018-02-22T13:33:47.013Z,48.00
2018-02-22T13:36:15.310Z,48.62
2018-02-22T13:39:02.221Z,48.69
2018-02-22T13:41:30.515Z,48.48
2018-02-22T13:44:16.394Z,47.67
2018-02-22T13:46:44.679Z,48.25
2018-02-22T13:49:30.684Z,47.96
2018-02-22T13:51:59.814Z,48.27
2018-02-22T13:54:28.100Z,46.92
2018-02-22T13:57:14.185Z,47.19
2018-02-22T13:59:42.563Z,47.99
2018-02-22T14:02:25.191Z,47.95
2018-02-22T14:04:53.522Z,47.87
2018-02-22T14:07:21.898Z,48.48
2018-02-22T14:09:50.176Z,48.15
2018-02-22T14:12:18.478Z,47.91
2018-02-22T14:14:46.782Z,47.80
2018-02-22T14:17:15.123Z,47.71
2018-02-22T14:19:43.369Z,47.44
2018-02-22T14:22:12.520Z,47.05
2018-02-22T14:24:40.796Z,47.52
2018-02-22T14:27:09.123Z,47.33
2018-02-22T14:29:37.493Z,47.40
2018-02-22T14:32:05.901Z,46.87
2018-02-22T14:34:34.139Z,48.07
2018-02-22T14:37:03.273Z,48.47
2018-02-22T14:39:31.590Z,49.65
2018-02-22T14:42:00.012Z,48.42
2018-02-22T14:44:29.189Z,48.49
2018-02-22T14:46:57.523Z,48.75
2018-02-22T14:49:25.838Z,49.58
2018-02-22T14:51:54.087Z,48.49
2018-02-22T14:54:22.405Z,48.97
2018-02-22T14:56:51.565Z,48.76
2018-02-22T14:59:19.998Z,48.57
2018-02-22T15:01:49.097Z,48.88
2018-02-22T15:04:17.501Z,48.81
2018-02-22T15:06:45.772Z,48.58
2018-02-22T15:09:14.113Z,48.62
2018-02-22T15:11:42.374Z,48.95
2018-02-22T15:14:11.984Z,49.03
2018-02-22T15:16:40.249Z,49.84
2018-02-22T15:19:08.567Z,49.13
2018-02-22T15:21:37.611Z,49.38
2018-02-22T15:24:05.895Z,48.77
2018-02-22T15:26:34.206Z,49.07
2018-02-22T15:29:02.835Z,48.93
2018-02-22T15:31:32.389Z,49.19
2018-02-22T15:34:01.425Z,48.80
2018-02-22T15:36:29.801Z,48.98
2018-02-22T15:38:58.078Z,49.20
2018-02-22T15:41:26.477Z,49.77
2018-02-22T15:43:54.871Z,49.78
2018-02-22T15:46:23.163Z,49.74
2018-02-22T15:48:51.454Z,49.85
2018-02-22T15:51:19.722Z,49.89
2018-02-22T15:53:48.943Z,49.60
2018-02-22T15:56:17.256Z,49.51
2018-02-22T15:58:45.919Z,49.54
2018-02-22T16:01:14.984Z,50.16
2018-02-22T16:03:43.303Z,49.90
2018-02-22T16:06:12.368Z,50.22
2018-02-22T16:08:40.720Z,49.94
2018-02-22T16:11:08.982Z,50.26
2018-02-22T16:13:37.395Z,50.21
2018-02-22T16:16:05.780Z,49.60
2018-02-22T16:18:34.868Z,50.37
2018-02-22T16:21:04.325Z,51.08
2018-02-22T16:23:32.783Z,50.36
2018-02-22T16:26:01.301Z,50.06
2018-02-22T16:28:30.366Z,50.09
2018-02-22T16:30:58.779Z,49.63
2018-02-22T16:33:28.067Z,50.18
2018-02-22T16:35:56.362Z,50.38
2018-02-22T16:38:24.819Z,50.38
2018-02-22T16:40:53.109Z,50.15
2018-02-22T16:43:21.480Z,50.09
2018-02-22T16:45:51.125Z,50.17
2018-02-22T16:48:19.471Z,50.57
2018-02-22T16:50:47.909Z,50.65
2018-02-22T16:53:16.940Z,50.93
2018-02-22T16:55:45.328Z,51.22
2018-02-22T16:58:14.297Z,51.44
2018-02-22T17:00:43.614Z,50.99
2018-02-22T17:03:12.790Z,50.78
2018-02-22T17:05:41.941Z,51.05
2018-02-22T17:08:11.428Z,50.82
2018-02-22T17:10:41.282Z,51.37
2018-02-22T17:13:09.553Z,51.39
2018-02-22T17:15:39.315Z,51.14
2018-02-22T17:18:07.621Z,51.05
2018-02-22T17:20:35.882Z,51.36
2018-02-22T17:23:04.275Z,51.37
2018-02-22T17:25:32.091Z,51.49
2018-02-22T17:28:05.823Z,51.99
2018-02-22T17:30:39.689Z,51.73
2018-02-22T17:33:08.797Z,52.41
2018-02-22T17:35:39.066Z,52.45
2018-02-22T17:38:09.583Z,53.26
2018-02-22T17:43:37.659Z,52.97
2018-02-22T17:46:07.461Z,52.88
2018-02-22T17:48:35.870Z,53.36
2018-02-22T17:51:04.445Z,53.06
2018-02-22T17:53:32.997Z,52.77
2018-02-22T17:56:01.412Z,52.81
2018-02-22T17:58:30.718Z,52.79
2018-02-22T18:00:59.180Z,53.27
2018-02-22T18:03:28.935Z,53.29
2018-02-22T18:05:57.223Z,53.04
2018-02-22T18:08:25.549Z,53.38
2018-02-22T18:10:54.032Z,53.03
2018-02-22T18:13:22.293Z,52.98
2018-02-22T18:15:50.596Z,53.16
2018-02-22T18:18:18.887Z,52.92
2018-02-22T18:20:47.999Z,53.25
2018-02-22T18:23:16.524Z,53.40
2018-02-22T18:25:45.042Z,52.86
2018-02-22T18:28:13.981Z,52.49
2018-02-22T18:30:42.518Z,53.34
2018-02-22T18:33:10.918Z,53.59
2018-02-22T18:35:39.503Z,53.23
2018-02-22T18:38:08.003Z,53.30
2018-02-22T18:40:41.955Z,52.78
2018-02-22T18:43:16.626Z,53.25
2018-02-22T18:45:44.980Z,52.93
2018-02-22T18:48:14.099Z,53.62
2018-02-22T18:50:42.585Z,53.56
2018-02-22T18:53:10.935Z,53.61
2018-02-22T18:55:39.243Z,53.78
2018-02-22T18:58:07.515Z,53.96
2018-02-22T19:00:35.800Z,54.16
2018-02-22T19:03:04.096Z,53.95
2018-02-22T19:05:32.571Z,54.16
2018-02-22T19:08:00.899Z,54.16
2018-02-22T19:10:29.285Z,54.50
2018-02-22T19:12:57.625Z,54.50
2018-02-22T19:15:26.146Z,53.90
2018-02-22T19:17:54.437Z,54.52
2018-02-22T19:20:22.760Z,54.61
2018-02-22T19:22:51.049Z,53.64
2018-02-22T19:25:19.412Z,54.31
2018-02-22T19:27:47.834Z,54.36
2018-02-22T19:30:16.244Z,54.31
2018-02-22T19:32:45.302Z,53.89
2018-02-22T19:35:13.896Z,54.33
2018-02-22T19:37:42.211Z,54.42
2018-02-22T19:40:10.556Z,54.28
2018-02-22T19:42:38.824Z,53.44
2018-02-22T19:45:07.887Z,53.63
2018-02-22T19:47:36.348Z,53.67
2018-02-22T19:50:04.683Z,52.90
2018-02-22T19:52:33.058Z,53.23
2018-02-22T19:55:02.129Z,53.33
2018-02-22T19:57:30.440Z,53.03
2018-02-22T19:59:58.957Z,53.15
2018-02-22T20:02:27.226Z,52.57
2018-02-22T20:04:55.524Z,52.84
2018-02-22T20:07:23.836Z,52.41
2018-02-22T20:09:52.306Z,51.57
2018-02-22T20:12:20.651Z,51.98
2018-02-22T20:14:49.730Z,51.71
2018-02-22T20:17:18.112Z,52.14
2018-02-22T20:19:46.528Z,51.63
2018-02-22T20:22:14.887Z,51.73
2018-02-22T20:24:43.269Z,51.72
2018-02-22T20:27:11.571Z,51.60
2018-02-22T20:29:39.842Z,51.75
2018-02-22T20:32:08.191Z,51.50
2018-02-22T20:34:37.194Z,51.67
2018-02-22T20:37:06.484Z,51.58
2018-02-22T20:39:34.828Z,51.70
2018-02-22T20:42:03.161Z,51.29
2018-02-22T20:44:31.446Z,51.50
2018-02-22T20:47:00.608Z,52.08
2018-02-22T20:49:29.004Z,51.86
2018-02-22T20:51:57.346Z,52.11
2018-02-22T20:54:25.635Z,52.35
2018-02-22T20:56:54.099Z,52.32
2018-02-22T20:59:22.509Z,52.29
2018-02-22T21:01:50.806Z,52.16
2018-02-22T21:04:19.878Z,51.77
2018-02-22T21:06:48.162Z,52.45
2018-02-22T21:09:16.439Z,52.25
2018-02-22T21:11:44.708Z,52.58
2018-02-22T21:14:13.731Z,52.09
2018-02-22T21:16:42.138Z,51.70
2018-02-22T21:19:10.424Z,52.19
2018-02-22T21:21:38.861Z,51.89
2018-02-22T21:24:07.967Z,51.45
2018-02-22T21:26:36.401Z,51.93
2018-02-22T21:29:05.462Z,51.78
2018-02-22T21:31:34.171Z,51.96
2018-02-22T21:34:02.474Z,52.20
2018-02-22T21:36:30.861Z,52.74
2018-02-22T21:38:59.208Z,53.02
2018-02-22T21:41:27.525Z,52.37
2018-02-22T21:43:56.085Z,52.32
2018-02-22T21:46:25.223Z,52.66
2018-02-22T21:48:53.512Z,52.86
2018-02-22T21:51:21.781Z,52.54
2018-02-22T21:53:50.102Z,53.17
2018-02-22T21:56:18.455Z,52.90
2018-02-22T21:58:46.749Z,53.11
2018-02-22T22:01:15.112Z,53.17
2018-02-22T22:03:44.226Z,52.79
2018-02-22T22:06:12.622Z,52.78
2018-02-22T22:08:41.002Z,52.75
2018-02-22T22:11:10.199Z,53.07
2018-02-22T22:13:38.679Z,53.03
2018-02-22T22:16:07.116Z,52.83
2018-02-22T22:18:35.531Z,53.38
2018-02-22T22:21:03.958Z,53.54
2018-02-22T22:23:32.236Z,53.35
2018-02-22T22:26:00.830Z,52.99
2018-02-22T22:28:29.210Z,53.05
2018-02-22T22:30:57.590Z,52.93
2018-02-22T22:33:25.985Z,53.58
2018-02-22T22:35:54.577Z,53.29
2018-02-22T22:38:23.127Z,53.09
2018-02-22T22:40:52.167Z,53.96
2018-02-22T22:43:20.480Z,54.02
2018-02-22T22:45:48.829Z,53.32
2018-02-22T22:48:17.952Z,53.69
2018-02-22T22:50:46.579Z,53.35
2018-02-22T22:53:15.116Z,52.92
2018-02-22T22:55:43.590Z,53.76
2018-02-22T22:58:12.380Z,54.19
2018-02-22T23:00:40.662Z,53.51
2018-02-22T23:03:08.976Z,53.94
2018-02-22T23:05:37.296Z,53.77
2018-02-22T23:08:06.394Z,54.03
2018-02-22T23:10:34.755Z,54.04
2018-02-22T23:13:03.171Z,54.50
2018-02-22T23:15:31.429Z,54.93
2018-02-22T23:17:59.704Z,54.50
2018-02-22T23:20:27.962Z,55.41
2018-02-22T23:22:56.227Z,55.47
2018-02-22T23:25:24.492Z,55.94
2018-02-22T23:27:52.887Z,55.84
2018-02-22T23:30:21.147Z,55.90
2018-02-22T23:32:49.432Z,56.82
2018-02-22T23:35:17.677Z,56.84
2018-02-22T23:37:45.952Z,57.02
2018-02-22T23:40:14.560Z,56.53
2018-02-22T23:42:42.847Z,56.39
2018-02-22T23:45:11.099Z,56.56
2018-02-22T23:47:39.374Z,56.27
2018-02-22T23:50:07.651Z,56.83
2018-02-22T23:52:35.932Z,56.86
2018-02-22T23:55:04.189Z,57.05
2018-02-22T23:57:32.436Z,57.02
